createdAt,value
2018-09-02T00:01:12.748Z,2.90
2018-09-02T00:06:15.303Z,3.23
2018-09-02T00:11:17.894Z,2.90
2018-09-02T00:16:20.440Z,3.27
2018-09-02T00:21:22.955Z,3.30
2018-09-02T00:26:25.459Z,3.03
2018-09-02T00:31:28.008Z,3.70
2018-09-02T00:36:30.535Z,3.70
2018-09-02T00:41:33.123Z,3.43
2018-09-02T00:46:35.639Z,3.50
2018-09-02T00:51:38.180Z,3.80
2018-09-02T00:56:40.756Z,4.40
2018-09-02T01:01:43.269Z,4.37
2018-09-02T01:06:45.795Z,3.90
2018-09-02T01:11:48.320Z,4.57
2018-09-02T01:16:50.882Z,5.17
2018-09-02T01:21:53.419Z,4.50
2018-09-02T01:26:55.942Z,4.77
2018-09-02T01:31:58.479Z,5.10
2018-09-02T01:37:01.056Z,6.03
2018-09-02T01:42:03.672Z,8.10
2018-09-02T01:47:06.227Z,6.27
2018-09-02T01:52:08.791Z,5.67
2018-09-02T01:57:11.298Z,5.70
2018-09-02T02:02:13.820Z,5.43
2018-09-02T02:07:16.327Z,5.90
2018-09-02T02:12:18.879Z,6.20
2018-09-02T02:17:21.453Z,6.33
2018-09-02T02:22:23.963Z,6.20
2018-09-02T02:27:26.474Z,6.07
2018-09-02T02:32:29.003Z,6.33
2018-09-02T02:37:31.544Z,7.70
2018-09-02T02:42:34.090Z,6.87
2018-09-02T02:47:36.975Z,6.90
2018-09-02T02:52:45.254Z,6.40
2018-09-02T02:57:47.775Z,7.37
2018-09-02T03:02:50.274Z,7.13
2018-09-02T03:07:52.872Z,7.10
2018-09-02T03:12:55.397Z,7.23
2018-09-02T03:17:57.929Z,6.83
2018-09-02T03:23:00.478Z,6.40
2018-09-02T03:28:03.013Z,7.00
2018-09-02T03:33:05.645Z,7.60
2018-09-02T03:38:08.176Z,7.13
2018-09-02T03:43:10.795Z,7.43
2018-09-02T03:48:13.332Z,7.83
2018-09-02T03:53:15.930Z,7.10
2018-09-02T03:58:18.453Z,7.53
2018-09-02T04:03:21.008Z,7.90
2018-09-02T04:08:23.545Z,7.30
2018-09-02T04:13:26.114Z,7.17
2018-09-02T04:18:29.546Z,7.80
2018-09-02T04:23:32.067Z,8.57
2018-09-02T04:28:34.578Z,7.83
2018-09-02T04:33:37.214Z,7.70
2018-09-02T04:38:39.679Z,7.83
2018-09-02T04:43:42.209Z,8.47
2018-09-02T04:48:44.755Z,7.77
2018-09-02T04:53:47.850Z,8.23
2018-09-02T04:58:50.371Z,7.83
2018-09-02T05:03:52.883Z,7.40
2018-09-02T05:08:55.419Z,8.47
2018-09-02T05:13:58.019Z,8.30
2018-09-02T05:19:00.594Z,7.63
2018-09-02T05:24:03.210Z,7.80
2018-09-02T05:29:05.863Z,8.07
2018-09-02T05:34:08.391Z,9.10
2018-09-02T05:39:10.943Z,7.47
2018-09-02T05:44:13.447Z,7.27
2018-09-02T05:49:15.979Z,7.97
2018-09-02T05:54:18.831Z,6.57
2018-09-02T05:59:21.369Z,7.70
2018-09-02T06:04:23.893Z,7.47
2018-09-02T06:09:26.435Z,8.83
2018-09-02T06:14:29.003Z,9.50
2018-09-02T06:19:31.528Z,7.17
2018-09-02T06:24:34.059Z,6.27
2018-09-02T06:29:36.599Z,6.90
2018-09-02T06:34:39.131Z,6.80
2018-09-02T06:39:42.064Z,7.07
2018-09-02T06:44:44.531Z,7.17
2018-09-02T06:49:47.066Z,6.80
2018-09-02T06:54:49.603Z,7.33
2018-09-02T06:59:52.156Z,7.20
2018-09-02T07:04:54.668Z,7.53
2018-09-02T07:09:57.202Z,8.13
2018-09-02T07:14:59.744Z,8.57
2018-09-02T07:20:02.335Z,13.03
2018-09-02T07:25:04.846Z,9.17
2018-09-02T07:30:07.434Z,8.80
2018-09-02T07:35:09.974Z,8.33
2018-09-02T07:40:12.529Z,10.03
2018-09-02T07:45:15.676Z,9.50
2018-09-02T07:50:18.207Z,9.20
2018-09-02T07:55:20.722Z,8.87
2018-09-02T08:00:23.290Z,9.07
2018-09-02T08:05:25.892Z,10.27
2018-09-02T08:10:28.496Z,10.60
2018-09-02T08:15:31.049Z,11.07
2018-09-02T08:20:33.595Z,10.70
2018-09-02T08:25:36.155Z,10.13
2018-09-02T08:30:38.793Z,12.23
2018-09-02T08:35:41.317Z,14.30
2018-09-02T08:40:43.834Z,14.37
2018-09-02T08:45:46.344Z,12.17
2018-09-02T08:50:48.883Z,9.93
2018-09-02T08:55:51.443Z,8.83
2018-09-02T09:00:53.958Z,8.23
2018-09-02T09:05:56.573Z,8.53
2018-09-02T09:10:59.904Z,8.07
2018-09-02T09:16:02.459Z,8.67
2018-09-02T09:21:05.500Z,8.53
2018-09-02T09:26:08.060Z,8.90
2018-09-02T09:31:10.647Z,8.43
2018-09-02T09:36:13.436Z,9.00
2018-09-02T09:41:16.001Z,8.90
2018-09-02T09:46:18.512Z,8.47
2018-09-02T09:51:21.072Z,8.27
2018-09-02T09:56:23.639Z,9.20
2018-09-02T10:01:26.201Z,8.80
2018-09-02T10:06:28.838Z,8.57
2018-09-02T10:11:31.499Z,10.90
2018-09-02T10:16:34.034Z,14.93
2018-09-02T10:21:36.582Z,11.50
2018-09-02T10:26:39.236Z,9.60
2018-09-02T10:31:41.904Z,10.00
2018-09-02T10:36:44.529Z,8.57
2018-09-02T10:41:47.211Z,13.87
2018-09-02T10:46:49.762Z,13.27
2018-09-02T10:51:53.191Z,10.57
2018-09-02T10:56:55.755Z,12.67
2018-09-02T11:01:58.304Z,12.90
2018-09-02T11:07:00.887Z,14.10
2018-09-02T11:12:03.492Z,7.63
2018-09-02T11:17:06.088Z,5.73
2018-09-02T11:22:08.683Z,4.90
2018-09-02T11:27:12.754Z,4.63
2018-09-02T11:32:15.349Z,6.07
2018-09-02T11:37:17.919Z,5.33
2018-09-02T11:42:20.494Z,5.60
2018-09-02T11:47:23.083Z,5.90
2018-09-02T11:52:25.652Z,5.53
2018-09-02T11:57:28.277Z,5.40
2018-09-02T12:02:30.855Z,4.40
2018-09-02T12:07:33.396Z,4.23
2018-09-02T12:12:36.005Z,4.33
2018-09-02T12:17:38.598Z,4.07
2018-09-02T12:22:41.199Z,4.00
2018-09-02T12:27:43.797Z,4.10
2018-09-02T12:32:46.386Z,3.90
2018-09-02T12:37:49.533Z,3.77
2018-09-02T12:42:52.156Z,4.17
2018-09-02T12:47:54.837Z,4.33
2018-09-02T12:52:57.323Z,4.53
2018-09-02T12:57:59.889Z,5.13
2018-09-02T13:03:03.583Z,11.03
2018-09-02T13:08:09.029Z,9.23
2018-09-02T13:13:11.600Z,11.20
2018-09-02T13:18:14.257Z,13.67
2018-09-02T13:23:16.816Z,16.57
2018-09-02T13:28:19.625Z,18.00
2018-09-02T13:33:22.194Z,6.57
2018-09-02T13:38:24.784Z,8.23
2018-09-02T13:43:27.412Z,10.67
2018-09-02T13:48:30.057Z,10.57
2018-09-02T13:53:32.623Z,5.87
2018-09-02T13:58:35.313Z,6.13
2018-09-02T14:03:38.012Z,5.93
2018-09-02T14:08:43.494Z,7.17
2018-09-02T14:13:46.051Z,7.53
2018-09-02T14:18:48.660Z,10.03
2018-09-02T14:23:51.284Z,9.20
2018-09-02T14:28:53.898Z,9.67
2018-09-02T14:33:56.510Z,10.13
2018-09-02T14:38:59.131Z,10.03
2018-09-02T14:44:01.751Z,9.77
2018-09-02T14:49:04.472Z,9.43
2018-09-02T14:54:07.067Z,9.80
2018-09-02T14:59:09.738Z,9.70
2018-09-02T15:04:12.359Z,9.17
2018-09-02T15:09:14.959Z,8.57
2018-09-02T15:14:17.599Z,9.17
2018-09-02T15:19:20.184Z,8.77
2018-09-02T15:24:22.792Z,8.43
2018-09-02T15:29:25.420Z,8.80
2018-09-02T15:34:28.014Z,9.13
2018-09-02T15:39:30.683Z,8.47
2018-09-02T15:44:33.325Z,8.60
2018-09-02T15:49:35.976Z,9.63
2018-09-02T15:54:38.563Z,10.37
2018-09-02T15:59:41.208Z,10.20
2018-09-02T16:04:43.785Z,9.93
2018-09-02T16:09:46.377Z,10.30
2018-09-02T16:14:48.933Z,10.13
2018-09-02T16:19:51.515Z,12.20
2018-09-02T16:24:54.321Z,11.07
2018-09-02T16:29:56.923Z,11.43
2018-09-02T16:34:59.596Z,12.87
2018-09-02T16:40:02.247Z,13.37
2018-09-02T16:45:05.083Z,12.93
2018-09-02T16:50:07.829Z,12.33
2018-09-02T16:55:10.493Z,12.67
2018-09-02T17:00:13.146Z,14.43
2018-09-02T17:05:18.609Z,13.93
2018-09-02T17:10:21.292Z,12.50
2018-09-02T17:15:23.935Z,12.90
2018-09-02T17:20:32.000Z,12.47
2018-09-02T17:25:34.672Z,12.57
2018-09-02T17:30:37.632Z,14.80
2018-09-02T17:35:40.261Z,13.43
2018-09-02T17:40:42.863Z,14.40
2018-09-02T17:45:45.605Z,14.43
2018-09-02T17:50:48.223Z,14.13
2018-09-02T17:55:51.073Z,13.27
2018-09-02T18:00:55.177Z,13.97
2018-09-02T18:05:57.777Z,13.50
2018-09-02T18:11:00.476Z,14.53
2018-09-02T18:16:03.268Z,14.63
2018-09-02T18:21:05.917Z,15.53
2018-09-02T18:26:08.548Z,14.97
2018-09-02T18:31:11.240Z,13.53
2018-09-02T18:36:13.846Z,15.07
2018-09-02T18:41:16.694Z,16.93
2018-09-02T18:46:19.694Z,24.23
2018-09-02T18:51:22.324Z,20.67
2018-09-02T18:56:25.339Z,29.17
2018-09-02T19:01:27.972Z,36.20
2018-09-02T19:06:30.801Z,31.03
2018-09-02T19:11:33.678Z,17.37
2018-09-02T19:16:36.651Z,13.87
2018-09-02T19:21:39.554Z,16.43
2018-09-02T19:26:42.321Z,16.10
2018-09-02T19:31:44.980Z,17.57
2018-09-02T19:36:47.896Z,15.60
2018-09-02T19:41:50.561Z,20.20
2018-09-02T19:46:53.256Z,21.93
2018-09-02T19:51:55.903Z,20.30
2018-09-02T19:56:58.535Z,23.00
2018-09-02T20:02:01.151Z,30.67
2018-09-02T20:07:03.730Z,24.43
2018-09-02T20:12:06.689Z,29.20
2018-09-02T20:17:09.303Z,26.83
2018-09-02T20:22:12.920Z,37.67
2018-09-02T20:27:16.136Z,30.77
2018-09-02T20:32:18.742Z,25.90
2018-09-02T20:37:21.319Z,21.50
2018-09-02T20:42:23.876Z,16.40
2018-09-02T20:47:26.430Z,14.50
2018-09-02T20:52:29.007Z,15.13
2018-09-02T20:57:31.712Z,20.60
2018-09-02T21:02:34.412Z,19.63
2018-09-02T21:07:37.016Z,19.30
2018-09-02T21:12:39.579Z,17.67
2018-09-02T21:17:42.142Z,25.73
2018-09-02T21:22:44.742Z,29.03
2018-09-02T21:27:47.317Z,25.43
2018-09-02T21:32:49.946Z,21.70
2018-09-02T21:37:52.568Z,20.87
2018-09-02T21:42:55.166Z,19.63
2018-09-02T21:47:57.714Z,20.10
2018-09-02T21:53:00.357Z,22.33
2018-09-02T21:58:02.920Z,19.40
2018-09-02T22:03:05.543Z,20.57
2018-09-02T22:08:08.112Z,21.77
2018-09-02T22:13:10.696Z,23.20
2018-09-02T22:18:13.263Z,22.73
2018-09-02T22:23:15.899Z,24.63
2018-09-02T22:28:18.387Z,20.53
2018-09-02T22:33:20.951Z,23.57
2018-09-02T22:38:23.587Z,25.90
2018-09-02T22:43:26.160Z,25.90
2018-09-02T22:48:28.713Z,24.37
2018-09-02T22:53:31.375Z,23.47
2018-09-02T22:58:33.909Z,24.47
2018-09-02T23:03:36.468Z,24.77
2018-09-02T23:08:39.011Z,20.80
2018-09-02T23:13:41.571Z,20.40
2018-09-02T23:18:44.094Z,20.57
2018-09-02T23:23:46.736Z,20.07
2018-09-02T23:28:49.391Z,20.47
2018-09-02T23:33:51.982Z,22.77
2018-09-02T23:38:54.570Z,22.83
2018-09-02T23:43:57.138Z,19.37
2018-09-02T23:49:00.361Z,21.93
2018-09-02T23:54:02.906Z,22.30
2018-09-02T23:59:05.464Z,23.17
